sensor_id;sensor_type;location;lat;lon;timestamp;temperature;humidity
32506;DHT22;18955;51.224;8.482;2024-01-30T00:00:23;8.30;71.10
32506;DHT22;18955;51.224;8.482;2024-01-30T00:02:50;8.10;71.60
32506;DHT22;18955;51.224;8.482;2024-01-30T00:05:16;8.60;70.40
32506;DHT22;18955;51.224;8.482;2024-01-30T00:07:43;8.60;70.10
32506;DHT22;18955;51.224;8.482;2024-01-30T00:10:09;8.30;70.70
32506;DHT22;18955;51.224;8.482;2024-01-30T00:12:35;8.20;71.50
32506;DHT22;18955;51.224;8.482;2024-01-30T00:15:01;8.30;71.40
32506;DHT22;18955;51.224;8.482;2024-01-30T00:17:30;8.60;70.10
32506;DHT22;18955;51.224;8.482;2024-01-30T00:19:56;8.40;70.50
32506;DHT22;18955;51.224;8.482;2024-01-30T00:22:23;8.20;71.20
32506;DHT22;18955;51.224;8.482;2024-01-30T00:24:49;8.10;71.70
32506;DHT22;18955;51.224;8.482;2024-01-30T00:27:15;8.50;70.50
32506;DHT22;18955;51.224;8.482;2024-01-30T00:29:42;8.40;70.30
32506;DHT22;18955;51.224;8.482;2024-01-30T00:32:08;8.20;71.10
32506;DHT22;18955;51.224;8.482;2024-01-30T00:34:34;8.10;71.70
32506;DHT22;18955;51.224;8.482;2024-01-30T00:37:00;8.30;71.10
32506;DHT22;18955;51.224;8.482;2024-01-30T00:39:27;8.50;70.20
32506;DHT22;18955;51.224;8.482;2024-01-30T00:41:54;8.30;70.60
32506;DHT22;18955;51.224;8.482;2024-01-30T00:44:20;8.10;71.40
32506;DHT22;18955;51.224;8.482;2024-01-30T00:46:46;8.20;72.10
32506;DHT22;18955;51.224;8.482;2024-01-30T00:49:12;8.50;70.40
32506;DHT22;18955;51.224;8.482;2024-01-30T00:51:38;8.40;70.60
32506;DHT22;18955;51.224;8.482;2024-01-30T00:54:05;8.20;71.20
32506;DHT22;18955;51.224;8.482;2024-01-30T00:56:32;8.00;71.90
32506;DHT22;18955;51.224;8.482;2024-01-30T00:58:59;8.40;70.70
32506;DHT22;18955;51.224;8.482;2024-01-30T01:01:25;8.40;70.30
32506;DHT22;18955;51.224;8.482;2024-01-30T01:03:51;8.20;70.90
32506;DHT22;18955;51.224;8.482;2024-01-30T01:06:17;8.00;71.80
32506;DHT22;18955;51.224;8.482;2024-01-30T01:08:43;8.20;71.80
32506;DHT22;18955;51.224;8.482;2024-01-30T01:11:10;8.40;70.40
32506;DHT22;18955;51.224;8.482;2024-01-30T01:13:36;8.30;70.70
32506;DHT22;18955;51.224;8.482;2024-01-30T01:16:02;8.10;71.40
32506;DHT22;18955;51.224;8.482;2024-01-30T01:18:29;8.00;71.80
32506;DHT22;18955;51.224;8.482;2024-01-30T01:20:56;8.30;70.50
32506;DHT22;18955;51.224;8.482;2024-01-30T01:23:22;8.30;70.40
32506;DHT22;18955;51.224;8.482;2024-01-30T01:25:48;8.10;71.00
32506;DHT22;18955;51.224;8.482;2024-01-30T01:28:14;7.90;71.80
32506;DHT22;18955;51.224;8.482;2024-01-30T01:30:40;8.20;71.00
32506;DHT22;18955;51.224;8.482;2024-01-30T01:33:07;8.30;70.20
32506;DHT22;18955;51.224;8.482;2024-01-30T01:35:33;8.20;70.70
32506;DHT22;18955;51.224;8.482;2024-01-30T01:38:00;8.00;71.50
32506;DHT22;18955;51.224;8.482;2024-01-30T01:40:27;8.10;71.70
32506;DHT22;18955;51.224;8.482;2024-01-30T01:42:54;8.40;70.10
32506;DHT22;18955;51.224;8.482;2024-01-30T01:45:21;8.20;70.40
32506;DHT22;18955;51.224;8.482;2024-01-30T01:47:48;8.00;71.10
32506;DHT22;18955;51.224;8.482;2024-01-30T01:50:16;7.90;71.60
32506;DHT22;18955;51.224;8.482;2024-01-30T01:52:50;8.30;70.20
32506;DHT22;18955;51.224;8.482;2024-01-30T01:55:18;8.20;70.10
32506;DHT22;18955;51.224;8.482;2024-01-30T01:57:52;8.10;70.90
32506;DHT22;18955;51.224;8.482;2024-01-30T02:00:19;7.80;71.50
32506;DHT22;18955;51.224;8.482;2024-01-30T02:02:46;8.20;70.60
32506;DHT22;18955;51.224;8.482;2024-01-30T02:05:13;8.20;70.10
32506;DHT22;18955;51.224;8.482;2024-01-30T02:08:08;8.10;70.80
32506;DHT22;18955;51.224;8.482;2024-01-30T02:10:35;7.80;71.50
32506;DHT22;18955;51.224;8.482;2024-01-30T02:13:16;8.20;70.80
32506;DHT22;18955;51.224;8.482;2024-01-30T02:15:43;8.20;70.20
32506;DHT22;18955;51.224;8.482;2024-01-30T02:18:09;8.00;70.70
32506;DHT22;18955;51.224;8.482;2024-01-30T02:20:35;7.80;71.40
32506;DHT22;18955;51.224;8.482;2024-01-30T02:23:04;8.10;71.10
32506;DHT22;18955;51.224;8.482;2024-01-30T02:25:40;8.20;70.00
32506;DHT22;18955;51.224;8.482;2024-01-30T02:28:13;8.10;70.40
32506;DHT22;18955;51.224;8.482;2024-01-30T02:30:39;7.80;71.20
32506;DHT22;18955;51.224;8.482;2024-01-30T02:33:06;7.90;71.30
32506;DHT22;18955;51.224;8.482;2024-01-30T02:35:32;8.20;69.80
32506;DHT22;18955;51.224;8.482;2024-01-30T02:37:59;8.10;70.20
32506;DHT22;18955;51.224;8.482;2024-01-30T02:40:25;7.90;71.00
32506;DHT22;18955;51.224;8.482;2024-01-30T02:42:51;7.90;72.00
32506;DHT22;18955;51.224;8.482;2024-01-30T02:45:18;8.20;69.90
32506;DHT22;18955;51.224;8.482;2024-01-30T02:47:46;8.10;70.00
32506;DHT22;18955;51.224;8.482;2024-01-30T02:50:12;7.90;70.80
32506;DHT22;18955;51.224;8.482;2024-01-30T02:52:39;7.80;71.30
32506;DHT22;18955;51.224;8.482;2024-01-30T02:55:05;8.10;70.00
32506;DHT22;18955;51.224;8.482;2024-01-30T02:57:31;8.10;69.90
32506;DHT22;18955;51.224;8.482;2024-01-30T02:59:58;7.90;70.50
32506;DHT22;18955;51.224;8.482;2024-01-30T03:02:24;7.70;71.20
32506;DHT22;18955;51.224;8.482;2024-01-30T03:04:50;8.10;70.40
32506;DHT22;18955;51.224;8.482;2024-01-30T03:07:16;8.10;69.80
32506;DHT22;18955;51.224;8.482;2024-01-30T03:09:43;7.90;70.40
32506;DHT22;18955;51.224;8.482;2024-01-30T03:12:09;7.70;71.20
32506;DHT22;18955;51.224;8.482;2024-01-30T03:14:36;8.00;70.50
32506;DHT22;18955;51.224;8.482;2024-01-30T03:17:02;8.10;69.70
32506;DHT22;18955;51.224;8.482;2024-01-30T03:19:28;7.90;70.20
32506;DHT22;18955;51.224;8.482;2024-01-30T03:21:55;7.60;70.80
32506;DHT22;18955;51.224;8.482;2024-01-30T03:24:21;7.90;70.70
32506;DHT22;18955;51.224;8.482;2024-01-30T03:26:47;8.10;69.50
32506;DHT22;18955;51.224;8.482;2024-01-30T03:29:13;7.90;70.00
32506;DHT22;18955;51.224;8.482;2024-01-30T03:31:39;7.70;70.70
32506;DHT22;18955;51.224;8.482;2024-01-30T03:34:06;7.80;71.10
32506;DHT22;18955;51.224;8.482;2024-01-30T03:36:32;8.00;69.70
32506;DHT22;18955;51.224;8.482;2024-01-30T03:39:01;8.00;70.00
32506;DHT22;18955;51.224;8.482;2024-01-30T03:41:27;7.60;70.80
32506;DHT22;18955;51.224;8.482;2024-01-30T03:43:53;7.70;71.20
32506;DHT22;18955;51.224;8.482;2024-01-30T03:46:19;8.10;69.60
32506;DHT22;18955;51.224;8.482;2024-01-30T03:48:46;7.90;69.80
32506;DHT22;18955;51.224;8.482;2024-01-30T03:51:12;7.70;70.60
32506;DHT22;18955;51.224;8.482;2024-01-30T03:53:42;7.60;71.10
32506;DHT22;18955;51.224;8.482;2024-01-30T03:56:09;8.00;69.60
32506;DHT22;18955;51.224;8.482;2024-01-30T03:58:35;7.90;69.70
32506;DHT22;18955;51.224;8.482;2024-01-30T04:01:01;7.70;70.50
32506;DHT22;18955;51.224;8.482;2024-01-30T04:03:28;7.60;70.90
32506;DHT22;18955;51.224;8.482;2024-01-30T04:05:54;8.00;69.60
32506;DHT22;18955;51.224;8.482;2024-01-30T04:08:20;7.90;69.60
32506;DHT22;18955;51.224;8.482;2024-01-30T04:10:47;7.70;70.40
32506;DHT22;18955;51.224;8.482;2024-01-30T04:13:13;7.60;70.90
32506;DHT22;18955;51.224;8.482;2024-01-30T04:15:40;8.00;69.60
32506;DHT22;18955;51.224;8.482;2024-01-30T04:18:06;7.90;69.40
32506;DHT22;18955;51.224;8.482;2024-01-30T04:20:32;7.70;70.20
32506;DHT22;18955;51.224;8.482;2024-01-30T04:22:58;7.50;70.90
32506;DHT22;18955;51.224;8.482;2024-01-30T04:25:24;7.90;69.80
32506;DHT22;18955;51.224;8.482;2024-01-30T04:27:51;7.90;69.30
32506;DHT22;18955;51.224;8.482;2024-01-30T04:30:17;7.70;70.00
32506;DHT22;18955;51.224;8.482;2024-01-30T04:32:43;7.50;70.80
32506;DHT22;18955;51.224;8.482;2024-01-30T04:35:10;7.80;70.10
32506;DHT22;18955;51.224;8.482;2024-01-30T04:37:36;7.90;69.30
32506;DHT22;18955;51.224;8.482;2024-01-30T04:40:03;7.70;69.90
32506;DHT22;18955;51.224;8.482;2024-01-30T04:42:29;7.50;70.80
32506;DHT22;18955;51.224;8.482;2024-01-30T04:44:55;7.70;70.30
32506;DHT22;18955;51.224;8.482;2024-01-30T04:47:21;7.90;69.40
32506;DHT22;18955;51.224;8.482;2024-01-30T04:49:47;7.70;69.90
32506;DHT22;18955;51.224;8.482;2024-01-30T04:52:14;7.50;70.60
32506;DHT22;18955;51.224;8.482;2024-01-30T04:54:40;7.70;70.50
32506;DHT22;18955;51.224;8.482;2024-01-30T04:57:06;7.90;69.40
32506;DHT22;18955;51.224;8.482;2024-01-30T04:59:35;7.70;69.80
32506;DHT22;18955;51.224;8.482;2024-01-30T05:02:02;7.50;70.60
32506;DHT22;18955;51.224;8.482;2024-01-30T05:04:28;7.60;70.50
32506;DHT22;18955;51.224;8.482;2024-01-30T05:06:54;7.90;69.40
32506;DHT22;18955;51.224;8.482;2024-01-30T05:09:21;7.70;69.70
32506;DHT22;18955;51.224;8.482;2024-01-30T05:11:47;7.50;70.50
32506;DHT22;18955;51.224;8.482;2024-01-30T05:14:13;7.60;70.70
32506;DHT22;18955;51.224;8.482;2024-01-30T05:16:41;7.80;69.30
32506;DHT22;18955;51.224;8.482;2024-01-30T05:19:08;7.70;69.60
32506;DHT22;18955;51.224;8.482;2024-01-30T05:21:35;7.50;70.50
32506;DHT22;18955;51.224;8.482;2024-01-30T05:24:01;7.50;70.80
32506;DHT22;18955;51.224;8.482;2024-01-30T05:26:27;7.90;69.30
32506;DHT22;18955;51.224;8.482;2024-01-30T05:28:53;7.70;69.60
32506;DHT22;18955;51.224;8.482;2024-01-30T05:31:20;7.50;70.50
32506;DHT22;18955;51.224;8.482;2024-01-30T05:33:47;7.50;70.90
32506;DHT22;18955;51.224;8.482;2024-01-30T05:36:13;7.80;69.40
32506;DHT22;18955;51.224;8.482;2024-01-30T05:38:39;7.70;69.70
32506;DHT22;18955;51.224;8.482;2024-01-30T05:41:06;7.50;70.60
32506;DHT22;18955;51.224;8.482;2024-01-30T05:43:32;7.40;71.10
32506;DHT22;18955;51.224;8.482;2024-01-30T05:45:58;7.80;69.40
32506;DHT22;18955;51.224;8.482;2024-01-30T05:48:24;7.70;69.70
32506;DHT22;18955;51.224;8.482;2024-01-30T05:50:51;7.50;70.50
32506;DHT22;18955;51.224;8.482;2024-01-30T05:53:17;7.40;71.30
32506;DHT22;18955;51.224;8.482;2024-01-30T05:55:43;7.80;69.80
32506;DHT22;18955;51.224;8.482;2024-01-30T05:58:09;7.70;69.90
32506;DHT22;18955;51.224;8.482;2024-01-30T06:00:36;7.40;70.60
32506;DHT22;18955;51.224;8.482;2024-01-30T06:03:02;7.40;71.40
32506;DHT22;18955;51.224;8.482;2024-01-30T06:05:28;7.80;69.80
32506;DHT22;18955;51.224;8.482;2024-01-30T06:07:54;7.70;69.80
32506;DHT22;18955;51.224;8.482;2024-01-30T06:10:21;7.50;70.60
32506;DHT22;18955;51.224;8.482;2024-01-30T06:12:47;7.40;71.30
32506;DHT22;18955;51.224;8.482;2024-01-30T06:15:14;7.80;70.00
32506;DHT22;18955;51.224;8.482;2024-01-30T06:17:40;7.70;69.90
32506;DHT22;18955;51.224;8.482;2024-01-30T06:20:07;7.50;70.60
32506;DHT22;18955;51.224;8.482;2024-01-30T06:22:33;7.30;71.30
32506;DHT22;18955;51.224;8.482;2024-01-30T06:24:59;7.70;70.20
32506;DHT22;18955;51.224;8.482;2024-01-30T06:27:26;7.70;70.00
32506;DHT22;18955;51.224;8.482;2024-01-30T06:29:52;7.50;70.70
32506;DHT22;18955;51.224;8.482;2024-01-30T06:32:18;7.30;71.40
32506;DHT22;18955;51.224;8.482;2024-01-30T06:34:44;7.70;70.10
32506;DHT22;18955;51.224;8.482;2024-01-30T06:37:11;7.70;69.90
32506;DHT22;18955;51.224;8.482;2024-01-30T06:39:37;7.50;70.70
32506;DHT22;18955;51.224;8.482;2024-01-30T06:42:04;7.30;71.30
32506;DHT22;18955;51.224;8.482;2024-01-30T06:44:30;7.80;70.10
32506;DHT22;18955;51.224;8.482;2024-01-30T06:46:56;7.70;69.90
32506;DHT22;18955;51.224;8.482;2024-01-30T06:49:22;7.50;70.70
32506;DHT22;18955;51.224;8.482;2024-01-30T06:51:49;7.30;71.20
32506;DHT22;18955;51.224;8.482;2024-01-30T06:54:15;7.80;69.90
32506;DHT22;18955;51.224;8.482;2024-01-30T06:56:41;7.70;69.60
32506;DHT22;18955;51.224;8.482;2024-01-30T06:59:07;7.50;70.40
32506;DHT22;18955;51.224;8.482;2024-01-30T07:01:34;7.30;71.20
32506;DHT22;18955;51.224;8.482;2024-01-30T07:04:00;7.80;70.10
32506;DHT22;18955;51.224;8.482;2024-01-30T07:06:27;7.70;69.70
32506;DHT22;18955;51.224;8.482;2024-01-30T07:08:53;7.50;70.50
32506;DHT22;18955;51.224;8.482;2024-01-30T07:11:20;7.30;71.20
32506;DHT22;18955;51.224;8.482;2024-01-30T07:13:48;7.70;69.90
32506;DHT22;18955;51.224;8.482;2024-01-30T07:16:15;7.70;69.80
32506;DHT22;18955;51.224;8.482;2024-01-30T07:18:41;7.50;70.60
32506;DHT22;18955;51.224;8.482;2024-01-30T07:21:07;7.30;71.20
32506;DHT22;18955;51.224;8.482;2024-01-30T07:23:34;7.70;70.00
32506;DHT22;18955;51.224;8.482;2024-01-30T07:26:03;7.70;69.70
32506;DHT22;18955;51.224;8.482;2024-01-30T07:28:29;7.50;70.50
32506;DHT22;18955;51.224;8.482;2024-01-30T07:30:56;7.30;71.20
32506;DHT22;18955;51.224;8.482;2024-01-30T07:33:22;7.70;70.10
32506;DHT22;18955;51.224;8.482;2024-01-30T07:35:49;7.70;69.70
32506;DHT22;18955;51.224;8.482;2024-01-30T07:38:15;7.50;70.40
32506;DHT22;18955;51.224;8.482;2024-01-30T07:40:41;7.30;71.10
32506;DHT22;18955;51.224;8.482;2024-01-30T07:43:08;7.70;70.10
32506;DHT22;18955;51.224;8.482;2024-01-30T07:45:34;7.70;69.90
32506;DHT22;18955;51.224;8.482;2024-01-30T07:48:00;7.50;70.60
32506;DHT22;18955;51.224;8.482;2024-01-30T07:50:27;7.30;71.20
32506;DHT22;18955;51.224;8.482;2024-01-30T07:52:53;7.70;70.20
32506;DHT22;18955;51.224;8.482;2024-01-30T07:55:21;7.70;69.90
32506;DHT22;18955;51.224;8.482;2024-01-30T07:57:52;7.50;70.60
32506;DHT22;18955;51.224;8.482;2024-01-30T08:00:19;7.30;71.30
32506;DHT22;18955;51.224;8.482;2024-01-30T08:02:48;7.70;70.00
32506;DHT22;18955;51.224;8.482;2024-01-30T08:05:14;7.70;69.80
32506;DHT22;18955;51.224;8.482;2024-01-30T08:07:41;7.50;70.50
32506;DHT22;18955;51.224;8.482;2024-01-30T08:10:10;7.30;71.20
32506;DHT22;18955;51.224;8.482;2024-01-30T08:12:37;7.80;70.10
32506;DHT22;18955;51.224;8.482;2024-01-30T08:15:05;7.70;69.90
32506;DHT22;18955;51.224;8.482;2024-01-30T08:17:31;7.50;70.60
32506;DHT22;18955;51.224;8.482;2024-01-30T08:19:58;7.30;71.30
32506;DHT22;18955;51.224;8.482;2024-01-30T08:22:24;7.80;70.00
32506;DHT22;18955;51.224;8.482;2024-01-30T08:24:50;7.70;70.40
32506;DHT22;18955;51.224;8.482;2024-01-30T08:27:17;7.50;70.60
32506;DHT22;18955;51.224;8.482;2024-01-30T08:29:43;7.30;71.20
32506;DHT22;18955;51.224;8.482;2024-01-30T08:32:09;7.70;70.20
32506;DHT22;18955;51.224;8.482;2024-01-30T08:34:35;7.70;69.90
32506;DHT22;18955;51.224;8.482;2024-01-30T08:37:01;7.50;70.60
32506;DHT22;18955;51.224;8.482;2024-01-30T08:39:28;7.30;71.90
32506;DHT22;18955;51.224;8.482;2024-01-30T08:41:54;7.70;70.30
32506;DHT22;18955;51.224;8.482;2024-01-30T08:44:20;7.70;70.10
32506;DHT22;18955;51.224;8.482;2024-01-30T08:46:47;7.50;70.70
32506;DHT22;18955;51.224;8.482;2024-01-30T08:49:13;7.30;71.40
32506;DHT22;18955;51.224;8.482;2024-01-30T08:51:40;7.70;70.40
32506;DHT22;18955;51.224;8.482;2024-01-30T08:54:06;7.70;70.00
32506;DHT22;18955;51.224;8.482;2024-01-30T08:56:32;7.50;70.80
32506;DHT22;18955;51.224;8.482;2024-01-30T08:58:58;7.40;71.60
32506;DHT22;18955;51.224;8.482;2024-01-30T09:01:25;7.80;70.50
32506;DHT22;18955;51.224;8.482;2024-01-30T09:03:52;7.70;70.10
32506;DHT22;18955;51.224;8.482;2024-01-30T09:06:18;7.50;70.80
32506;DHT22;18955;51.224;8.482;2024-01-30T09:08:45;7.40;71.70
32506;DHT22;18955;51.224;8.482;2024-01-30T09:11:12;7.80;70.40
32506;DHT22;18955;51.224;8.482;2024-01-30T09:13:39;7.80;70.20
32506;DHT22;18955;51.224;8.482;2024-01-30T09:16:05;7.60;70.90
32506;DHT22;18955;51.224;8.482;2024-01-30T09:18:32;7.40;71.80
32506;DHT22;18955;51.224;8.482;2024-01-30T09:20:58;7.80;71.00
32506;DHT22;18955;51.224;8.482;2024-01-30T09:23:27;7.80;70.10
32506;DHT22;18955;51.224;8.482;2024-01-30T09:25:53;7.60;70.80
32506;DHT22;18955;51.224;8.482;2024-01-30T09:28:20;7.40;71.60
32506;DHT22;18955;51.224;8.482;2024-01-30T09:30:46;7.80;70.80
32506;DHT22;18955;51.224;8.482;2024-01-30T09:33:12;7.70;70.50
32506;DHT22;18955;51.224;8.482;2024-01-30T09:35:38;7.50;71.10
32506;DHT22;18955;51.224;8.482;2024-01-30T09:38:04;7.40;71.80
32506;DHT22;18955;51.224;8.482;2024-01-30T09:40:31;7.90;70.40
32506;DHT22;18955;51.224;8.482;2024-01-30T09:42:59;7.80;70.30
32506;DHT22;18955;51.224;8.482;2024-01-30T09:45:28;7.60;71.10
32506;DHT22;18955;51.224;8.482;2024-01-30T09:47:54;7.50;71.80
32506;DHT22;18955;51.224;8.482;2024-01-30T09:50:20;7.90;70.70
32506;DHT22;18955;51.224;8.482;2024-01-30T09:52:47;7.90;70.40
32506;DHT22;18955;51.224;8.482;2024-01-30T09:55:13;7.70;71.10
32506;DHT22;18955;51.224;8.482;2024-01-30T09:57:41;7.50;71.70
32506;DHT22;18955;51.224;8.482;2024-01-30T10:00:07;7.90;70.80
32506;DHT22;18955;51.224;8.482;2024-01-30T10:02:41;7.90;70.30
32506;DHT22;18955;51.224;8.482;2024-01-30T10:05:08;7.70;71.00
32506;DHT22;18955;51.224;8.482;2024-01-30T10:07:34;7.50;71.60
32506;DHT22;18955;51.224;8.482;2024-01-30T10:10:00;8.00;70.80
32506;DHT22;18955;51.224;8.482;2024-01-30T10:12:27;8.10;70.10
32506;DHT22;18955;51.224;8.482;2024-01-30T10:14:56;7.80;70.70
32506;DHT22;18955;51.224;8.482;2024-01-30T10:17:25;7.60;71.40
32506;DHT22;18955;51.224;8.482;2024-01-30T10:19:53;8.00;71.40
32506;DHT22;18955;51.224;8.482;2024-01-30T10:22:19;8.10;70.60
32506;DHT22;18955;51.224;8.482;2024-01-30T10:24:46;8.00;70.60
32506;DHT22;18955;51.224;8.482;2024-01-30T10:27:12;7.70;71.30
32506;DHT22;18955;51.224;8.482;2024-01-30T10:29:38;7.90;72.10
32506;DHT22;18955;51.224;8.482;2024-01-30T10:32:05;8.30;70.40
32506;DHT22;18955;51.224;8.482;2024-01-30T10:34:32;8.10;70.40
32506;DHT22;18955;51.224;8.482;2024-01-30T10:37:10;7.90;71.20
32506;DHT22;18955;51.224;8.482;2024-01-30T10:39:39;7.80;72.20
32506;DHT22;18955;51.224;8.482;2024-01-30T10:42:07;8.20;70.60
32506;DHT22;18955;51.224;8.482;2024-01-30T10:44:43;8.20;70.40
32506;DHT22;18955;51.224;8.482;2024-01-30T10:47:12;7.90;71.10
32506;DHT22;18955;51.224;8.482;2024-01-30T10:49:41;7.90;72.30
32506;DHT22;18955;51.224;8.482;2024-01-30T10:52:11;8.40;70.80
32506;DHT22;18955;51.224;8.482;2024-01-30T10:54:40;8.30;70.30
32506;DHT22;18955;51.224;8.482;2024-01-30T10:57:09;8.00;70.90
32506;DHT22;18955;51.224;8.482;2024-01-30T10:59:37;8.00;71.80
32506;DHT22;18955;51.224;8.482;2024-01-30T11:02:03;8.40;71.30
32506;DHT22;18955;51.224;8.482;2024-01-30T11:04:55;8.40;70.30
32506;DHT22;18955;51.224;8.482;2024-01-30T11:07:29;8.20;71.30
32506;DHT22;18955;51.224;8.482;2024-01-30T11:12:29;8.50;71.10
32506;DHT22;18955;51.224;8.482;2024-01-30T11:15:16;8.50;70.40
32506;DHT22;18955;51.224;8.482;2024-01-30T11:20:22;8.10;71.70
32506;DHT22;18955;51.224;8.482;2024-01-30T11:22:53;8.50;71.80
32506;DHT22;18955;51.224;8.482;2024-01-30T11:25:23;8.60;70.80
32506;DHT22;18955;51.224;8.482;2024-01-30T11:27:54;8.50;70.80
32506;DHT22;18955;51.224;8.482;2024-01-30T11:33:11;8.40;72.50
32506;DHT22;18955;51.224;8.482;2024-01-30T11:35:39;8.80;70.30
32506;DHT22;18955;51.224;8.482;2024-01-30T11:38:08;8.70;70.60
32506;DHT22;18955;51.224;8.482;2024-01-30T11:40:36;8.50;71.30
32506;DHT22;18955;51.224;8.482;2024-01-30T11:43:03;8.40;72.50
32506;DHT22;18955;51.224;8.482;2024-01-30T11:45:31;8.80;71.30
32506;DHT22;18955;51.224;8.482;2024-01-30T11:47:58;8.80;70.60
32506;DHT22;18955;51.224;8.482;2024-01-30T11:50:26;8.60;71.00
32506;DHT22;18955;51.224;8.482;2024-01-30T11:52:54;8.50;71.80
32506;DHT22;18955;51.224;8.482;2024-01-30T11:55:22;8.70;72.60
32506;DHT22;18955;51.224;8.482;2024-01-30T11:57:49;9.00;71.10
32506;DHT22;18955;51.224;8.482;2024-01-30T12:00:15;8.90;70.90
32506;DHT22;18955;51.224;8.482;2024-01-30T12:02:52;8.70;71.60
32506;DHT22;18955;51.224;8.482;2024-01-30T12:05:22;8.50;72.40
32506;DHT22;18955;51.224;8.482;2024-01-30T12:07:48;9.10;71.20
32506;DHT22;18955;51.224;8.482;2024-01-30T12:10:14;9.10;70.70
32506;DHT22;18955;51.224;8.482;2024-01-30T12:12:43;8.90;71.30
32506;DHT22;18955;51.224;8.482;2024-01-30T12:15:10;8.70;72.00
32506;DHT22;18955;51.224;8.482;2024-01-30T12:17:36;8.80;73.00
32506;DHT22;18955;51.224;8.482;2024-01-30T12:20:07;9.20;71.00
32506;DHT22;18955;51.224;8.482;2024-01-30T12:22:45;9.10;71.00
32506;DHT22;18955;51.224;8.482;2024-01-30T12:25:16;8.90;71.60
32506;DHT22;18955;51.224;8.482;2024-01-30T12:27:47;8.70;72.30
32506;DHT22;18955;51.224;8.482;2024-01-30T12:30:18;9.10;72.20
32506;DHT22;18955;51.224;8.482;2024-01-30T12:32:46;9.20;71.20
32506;DHT22;18955;51.224;8.482;2024-01-30T12:35:16;9.10;71.40
32506;DHT22;18955;51.224;8.482;2024-01-30T12:37:47;8.90;72.00
32506;DHT22;18955;51.224;8.482;2024-01-30T12:40:17;8.90;73.20
32506;DHT22;18955;51.224;8.482;2024-01-30T12:42:45;9.30;71.70
32506;DHT22;18955;51.224;8.482;2024-01-30T12:45:14;9.30;71.10
32506;DHT22;18955;51.224;8.482;2024-01-30T12:47:42;9.10;71.60
32506;DHT22;18955;51.224;8.482;2024-01-30T12:50:08;9.00;72.30
32506;DHT22;18955;51.224;8.482;2024-01-30T12:52:35;9.10;73.00
32506;DHT22;18955;51.224;8.482;2024-01-30T12:55:02;9.40;71.50
32506;DHT22;18955;51.224;8.482;2024-01-30T12:57:30;9.30;71.30
32506;DHT22;18955;51.224;8.482;2024-01-30T12:59:56;9.20;71.90
32506;DHT22;18955;51.224;8.482;2024-01-30T13:02:22;9.00;72.60
32506;DHT22;18955;51.224;8.482;2024-01-30T13:04:49;9.30;72.60
32506;DHT22;18955;51.224;8.482;2024-01-30T13:07:15;9.60;71.50
32506;DHT22;18955;51.224;8.482;2024-01-30T13:09:41;9.40;71.50
32506;DHT22;18955;51.224;8.482;2024-01-30T13:12:08;9.30;72.10
32506;DHT22;18955;51.224;8.482;2024-01-30T13:14:34;9.10;72.70
32506;DHT22;18955;51.224;8.482;2024-01-30T13:17:00;9.40;72.80
32506;DHT22;18955;51.224;8.482;2024-01-30T13:19:27;9.70;71.60
32506;DHT22;18955;51.224;8.482;2024-01-30T13:21:53;9.60;71.50
32506;DHT22;18955;51.224;8.482;2024-01-30T13:24:19;9.40;72.20
32506;DHT22;18955;51.224;8.482;2024-01-30T13:26:47;9.20;72.90
32506;DHT22;18955;51.224;8.482;2024-01-30T13:29:14;9.40;72.90
32506;DHT22;18955;51.224;8.482;2024-01-30T13:31:40;9.70;71.60
32506;DHT22;18955;51.224;8.482;2024-01-30T13:34:07;9.60;71.70
32506;DHT22;18955;51.224;8.482;2024-01-30T13:36:33;9.40;72.40
32506;DHT22;18955;51.224;8.482;2024-01-30T13:39:00;9.30;73.00
32506;DHT22;18955;51.224;8.482;2024-01-30T13:41:26;9.40;73.20
32506;DHT22;18955;51.224;8.482;2024-01-30T13:43:53;9.80;71.60
32506;DHT22;18955;51.224;8.482;2024-01-30T13:46:19;9.70;71.60
32506;DHT22;18955;51.224;8.482;2024-01-30T13:48:46;9.60;72.40
32506;DHT22;18955;51.224;8.482;2024-01-30T13:51:12;9.40;72.90
32506;DHT22;18955;51.224;8.482;2024-01-30T13:53:39;9.40;73.70
32506;DHT22;18955;51.224;8.482;2024-01-30T13:56:05;9.90;72.00
32506;DHT22;18955;51.224;8.482;2024-01-30T13:58:32;9.80;71.70
32506;DHT22;18955;51.224;8.482;2024-01-30T14:00:59;9.60;72.50
32506;DHT22;18955;51.224;8.482;2024-01-30T14:03:25;9.50;73.00
32506;DHT22;18955;51.224;8.482;2024-01-30T14:05:52;9.40;73.60
32506;DHT22;18955;51.224;8.482;2024-01-30T14:08:18;9.80;72.30
32506;DHT22;18955;51.224;8.482;2024-01-30T14:10:45;9.90;71.90
32506;DHT22;18955;51.224;8.482;2024-01-30T14:13:12;9.70;72.40
32506;DHT22;18955;51.224;8.482;2024-01-30T14:15:38;9.60;73.00
32506;DHT22;18955;51.224;8.482;2024-01-30T14:18:05;9.40;73.70
32506;DHT22;18955;51.224;8.482;2024-01-30T14:20:31;9.90;72.60
32506;DHT22;18955;51.224;8.482;2024-01-30T14:22:57;10.00;71.80
32506;DHT22;18955;51.224;8.482;2024-01-30T14:25:23;9.80;72.40
32506;DHT22;18955;51.224;8.482;2024-01-30T14:27:49;9.70;72.90
32506;DHT22;18955;51.224;8.482;2024-01-30T14:30:16;9.60;73.50
32506;DHT22;18955;51.224;8.482;2024-01-30T14:32:42;9.80;73.50
32506;DHT22;18955;51.224;8.482;2024-01-30T14:35:10;10.10;72.00
32506;DHT22;18955;51.224;8.482;2024-01-30T14:37:37;10.00;72.20
32506;DHT22;18955;51.224;8.482;2024-01-30T14:40:04;9.80;73.00
32506;DHT22;18955;51.224;8.482;2024-01-30T14:42:33;9.70;73.40
32506;DHT22;18955;51.224;8.482;2024-01-30T14:44:59;9.70;74.20
32506;DHT22;18955;51.224;8.482;2024-01-30T14:47:26;10.10;72.60
32506;DHT22;18955;51.224;8.482;2024-01-30T14:49:52;10.10;72.20
32506;DHT22;18955;51.224;8.482;2024-01-30T14:52:18;9.90;72.80
32506;DHT22;18955;51.224;8.482;2024-01-30T14:54:45;9.80;73.40
32506;DHT22;18955;51.224;8.482;2024-01-30T14:57:11;9.60;73.80
32506;DHT22;18955;51.224;8.482;2024-01-30T14:59:37;10.00;73.40
32506;DHT22;18955;51.224;8.482;2024-01-30T15:02:04;10.20;72.30
32506;DHT22;18955;51.224;8.482;2024-01-30T15:04:30;10.10;72.60
32506;DHT22;18955;51.224;8.482;2024-01-30T15:06:56;9.90;73.30
32506;DHT22;18955;51.224;8.482;2024-01-30T15:09:22;9.80;73.70
32506;DHT22;18955;51.224;8.482;2024-01-30T15:11:49;9.70;74.20
32506;DHT22;18955;51.224;8.482;2024-01-30T15:14:16;10.20;72.90
32506;DHT22;18955;51.224;8.482;2024-01-30T15:16:42;10.20;72.40
32506;DHT22;18955;51.224;8.482;2024-01-30T15:19:08;10.00;72.90
32506;DHT22;18955;51.224;8.482;2024-01-30T15:21:35;9.90;73.50
32506;DHT22;18955;51.224;8.482;2024-01-30T15:24:02;9.80;73.90
32506;DHT22;18955;51.224;8.482;2024-01-30T15:26:29;10.00;73.80
32506;DHT22;18955;51.224;8.482;2024-01-30T15:28:55;10.30;72.40
32506;DHT22;18955;51.224;8.482;2024-01-30T15:31:21;10.20;72.60
32506;DHT22;18955;51.224;8.482;2024-01-30T15:33:47;10.00;73.20
32506;DHT22;18955;51.224;8.482;2024-01-30T15:36:14;9.90;73.70
32506;DHT22;18955;51.224;8.482;2024-01-30T15:38:41;9.80;74.30
32506;DHT22;18955;51.224;8.482;2024-01-30T15:41:07;10.20;73.80
32506;DHT22;18955;51.224;8.482;2024-01-30T15:43:33;10.30;72.30
32506;DHT22;18955;51.224;8.482;2024-01-30T15:46:00;10.20;72.80
32506;DHT22;18955;51.224;8.482;2024-01-30T15:48:29;10.00;73.40
32506;DHT22;18955;51.224;8.482;2024-01-30T15:50:55;9.90;73.90